sensor_id;sensor_type;location;lat;lon;timestamp;temperature;humidity
12819;DHT22;6474;53.474;9.894;2024-03-23T00:53:53;7.80;87.80
12819;DHT22;6474;53.474;9.894;2024-03-23T00:56:20;7.80;87.80
12819;DHT22;6474;53.474;9.894;2024-03-23T00:58:46;7.70;87.80
12819;DHT22;6474;53.474;9.894;2024-03-23T01:01:14;7.70;87.80
12819;DHT22;6474;53.474;9.894;2024-03-23T01:03:40;7.70;87.90
12819;DHT22;6474;53.474;9.894;2024-03-23T01:06:07;7.70;87.90
12819;DHT22;6474;53.474;9.894;2024-03-23T01:08:32;7.60;87.80
12819;DHT22;6474;53.474;9.894;2024-03-23T01:11:02;7.60;87.80
12819;DHT22;6474;53.474;9.894;2024-03-23T01:13:28;7.60;87.80
12819;DHT22;6474;53.474;9.894;2024-03-23T01:15:56;7.50;87.80
12819;DHT22;6474;53.474;9.894;2024-03-23T01:18:23;7.60;87.90
12819;DHT22;6474;53.474;9.894;2024-03-23T01:20:52;7.50;87.80
12819;DHT22;6474;53.474;9.894;2024-03-23T01:23:19;7.50;87.70
12819;DHT22;6474;53.474;9.894;2024-03-23T01:25:51;7.50;87.80
12819;DHT22;6474;53.474;9.894;2024-03-23T01:28:20;7.50;87.80
12819;DHT22;6474;53.474;9.894;2024-03-23T01:30:46;7.50;87.80
12819;DHT22;6474;53.474;9.894;2024-03-23T01:33:13;7.50;87.80
12819;DHT22;6474;53.474;9.894;2024-03-23T01:35:39;7.40;87.80
12819;DHT22;6474;53.474;9.894;2024-03-23T01:38:06;7.40;87.80
12819;DHT22;6474;53.474;9.894;2024-03-23T01:40:32;7.40;87.80
12819;DHT22;6474;53.474;9.894;2024-03-23T01:43:03;7.40;87.90
12819;DHT22;6474;53.474;9.894;2024-03-23T01:45:31;7.40;87.90
12819;DHT22;6474;53.474;9.894;2024-03-23T01:47:58;7.40;87.80
12819;DHT22;6474;53.474;9.894;2024-03-23T01:50:25;7.40;87.80
12819;DHT22;6474;53.474;9.894;2024-03-23T01:52:52;7.40;87.80
12819;DHT22;6474;53.474;9.894;2024-03-23T01:55:18;7.30;87.70
12819;DHT22;6474;53.474;9.894;2024-03-23T01:57:45;7.30;87.70
12819;DHT22;6474;53.474;9.894;2024-03-23T02:00:12;7.30;87.70
12819;DHT22;6474;53.474;9.894;2024-03-23T02:02:43;7.30;87.70
12819;DHT22;6474;53.474;9.894;2024-03-23T02:05:10;7.30;87.70
12819;DHT22;6474;53.474;9.894;2024-03-23T02:07:37;7.30;87.80
12819;DHT22;6474;53.474;9.894;2024-03-23T02:10:04;7.30;87.80
12819;DHT22;6474;53.474;9.894;2024-03-23T02:12:32;7.30;87.80
12819;DHT22;6474;53.474;9.894;2024-03-23T02:14:57;7.20;87.70
12819;DHT22;6474;53.474;9.894;2024-03-23T02:17:24;7.20;87.70
12819;DHT22;6474;53.474;9.894;2024-03-23T02:19:52;7.20;87.70
12819;DHT22;6474;53.474;9.894;2024-03-23T02:22:18;7.20;87.70
12819;DHT22;6474;53.474;9.894;2024-03-23T02:24:46;7.20;87.80
12819;DHT22;6474;53.474;9.894;2024-03-23T02:27:12;7.10;87.70
12819;DHT22;6474;53.474;9.894;2024-03-23T02:29:38;7.10;87.70
12819;DHT22;6474;53.474;9.894;2024-03-23T02:32:06;7.10;87.70
12819;DHT22;6474;53.474;9.894;2024-03-23T02:34:34;7.10;87.70
12819;DHT22;6474;53.474;9.894;2024-03-23T02:37:01;7.10;87.80
12819;DHT22;6474;53.474;9.894;2024-03-23T02:39:27;7.10;87.80
12819;DHT22;6474;53.474;9.894;2024-03-23T02:41:56;7.00;87.70
12819;DHT22;6474;53.474;9.894;2024-03-23T02:44:22;7.10;87.80
12819;DHT22;6474;53.474;9.894;2024-03-23T02:46:49;7.00;87.70
12819;DHT22;6474;53.474;9.894;2024-03-23T02:49:15;7.00;87.80
12819;DHT22;6474;53.474;9.894;2024-03-23T02:51:42;7.00;87.80
12819;DHT22;6474;53.474;9.894;2024-03-23T02:54:10;7.00;87.80
12819;DHT22;6474;53.474;9.894;2024-03-23T02:56:37;7.00;87.80
12819;DHT22;6474;53.474;9.894;2024-03-23T02:59:05;7.00;87.80
12819;DHT22;6474;53.474;9.894;2024-03-23T03:01:31;7.00;87.90
12819;DHT22;6474;53.474;9.894;2024-03-23T03:03:57;7.00;87.90
12819;DHT22;6474;53.474;9.894;2024-03-23T03:06:25;7.00;87.90
12819;DHT22;6474;53.474;9.894;2024-03-23T03:08:51;7.00;87.90
12819;DHT22;6474;53.474;9.894;2024-03-23T03:11:18;7.00;87.90
12819;DHT22;6474;53.474;9.894;2024-03-23T03:13:44;7.00;87.80
12819;DHT22;6474;53.474;9.894;2024-03-23T03:16:12;7.00;87.90
12819;DHT22;6474;53.474;9.894;2024-03-23T03:18:38;7.00;88.70
12819;DHT22;6474;53.474;9.894;2024-03-23T03:21:06;7.00;87.90
12819;DHT22;6474;53.474;9.894;2024-03-23T03:23:36;7.00;88.00
12819;DHT22;6474;53.474;9.894;2024-03-23T03:26:03;7.00;88.00
12819;DHT22;6474;53.474;9.894;2024-03-23T03:28:29;7.00;88.00
12819;DHT22;6474;53.474;9.894;2024-03-23T03:30:57;7.00;88.00
12819;DHT22;6474;53.474;9.894;2024-03-23T03:33:24;7.00;87.90
12819;DHT22;6474;53.474;9.894;2024-03-23T03:35:51;7.00;87.80
12819;DHT22;6474;53.474;9.894;2024-03-23T03:38:18;7.00;87.80
12819;DHT22;6474;53.474;9.894;2024-03-23T03:40:45;7.00;87.80
12819;DHT22;6474;53.474;9.894;2024-03-23T03:43:11;6.90;87.70
12819;DHT22;6474;53.474;9.894;2024-03-23T03:45:38;6.90;87.80
12819;DHT22;6474;53.474;9.894;2024-03-23T03:48:04;6.90;87.70
12819;DHT22;6474;53.474;9.894;2024-03-23T03:50:33;6.90;87.80
12819;DHT22;6474;53.474;9.894;2024-03-23T03:52:58;6.90;87.70
12819;DHT22;6474;53.474;9.894;2024-03-23T03:55:25;6.80;87.70
12819;DHT22;6474;53.474;9.894;2024-03-23T03:57:51;6.80;87.60
12819;DHT22;6474;53.474;9.894;2024-03-23T04:00:18;6.80;87.60
12819;DHT22;6474;53.474;9.894;2024-03-23T04:02:44;6.80;87.70
12819;DHT22;6474;53.474;9.894;2024-03-23T04:05:12;6.80;87.70
12819;DHT22;6474;53.474;9.894;2024-03-23T04:07:39;6.70;87.60
12819;DHT22;6474;53.474;9.894;2024-03-23T04:10:07;6.70;87.70
12819;DHT22;6474;53.474;9.894;2024-03-23T04:12:33;6.70;87.70
12819;DHT22;6474;53.474;9.894;2024-03-23T04:15:00;6.80;87.80
12819;DHT22;6474;53.474;9.894;2024-03-23T04:17:29;6.70;87.70
12819;DHT22;6474;53.474;9.894;2024-03-23T04:19:58;6.70;87.70
12819;DHT22;6474;53.474;9.894;2024-03-23T04:22:24;6.70;87.70
12819;DHT22;6474;53.474;9.894;2024-03-23T04:24:54;6.70;87.70
12819;DHT22;6474;53.474;9.894;2024-03-23T04:27:20;6.70;87.70
12819;DHT22;6474;53.474;9.894;2024-03-23T04:29:47;6.70;87.70
12819;DHT22;6474;53.474;9.894;2024-03-23T04:32:14;6.70;87.60
12819;DHT22;6474;53.474;9.894;2024-03-23T04:34:41;6.70;87.70
12819;DHT22;6474;53.474;9.894;2024-03-23T04:37:07;6.70;87.70
12819;DHT22;6474;53.474;9.894;2024-03-23T04:39:35;6.60;87.60
12819;DHT22;6474;53.474;9.894;2024-03-23T04:42:04;6.60;87.60
12819;DHT22;6474;53.474;9.894;2024-03-23T04:44:31;6.60;87.60
12819;DHT22;6474;53.474;9.894;2024-03-23T04:46:57;6.60;87.60
12819;DHT22;6474;53.474;9.894;2024-03-23T04:49:24;6.60;87.60
12819;DHT22;6474;53.474;9.894;2024-03-23T04:51:51;6.60;87.60
12819;DHT22;6474;53.474;9.894;2024-03-23T04:54:18;6.60;87.60
12819;DHT22;6474;53.474;9.894;2024-03-23T04:56:45;6.50;87.50
12819;DHT22;6474;53.474;9.894;2024-03-23T04:59:13;6.50;87.60
12819;DHT22;6474;53.474;9.894;2024-03-23T05:01:40;6.50;87.60
12819;DHT22;6474;53.474;9.894;2024-03-23T05:04:07;6.50;87.60
12819;DHT22;6474;53.474;9.894;2024-03-23T05:06:34;6.50;87.60
12819;DHT22;6474;53.474;9.894;2024-03-23T05:09:00;6.60;87.70
12819;DHT22;6474;53.474;9.894;2024-03-23T05:11:31;6.50;87.60
12819;DHT22;6474;53.474;9.894;2024-03-23T05:13:58;6.50;87.60
12819;DHT22;6474;53.474;9.894;2024-03-23T05:16:26;6.50;87.60
12819;DHT22;6474;53.474;9.894;2024-03-23T05:18:52;6.50;87.60
12819;DHT22;6474;53.474;9.894;2024-03-23T05:21:19;6.50;87.50
12819;DHT22;6474;53.474;9.894;2024-03-23T05:23:45;6.50;87.60
12819;DHT22;6474;53.474;9.894;2024-03-23T05:26:14;6.50;87.60
12819;DHT22;6474;53.474;9.894;2024-03-23T05:28:40;6.50;87.50
12819;DHT22;6474;53.474;9.894;2024-03-23T05:31:07;6.50;87.50
12819;DHT22;6474;53.474;9.894;2024-03-23T05:33:36;6.50;87.60
12819;DHT22;6474;53.474;9.894;2024-03-23T05:36:04;6.50;87.50
12819;DHT22;6474;53.474;9.894;2024-03-23T05:38:30;6.50;87.50
12819;DHT22;6474;53.474;9.894;2024-03-23T05:40:58;6.60;87.60
12819;DHT22;6474;53.474;9.894;2024-03-23T05:43:24;6.50;87.50
12819;DHT22;6474;53.474;9.894;2024-03-23T05:45:54;6.60;87.60
12819;DHT22;6474;53.474;9.894;2024-03-23T05:48:21;6.60;87.60
12819;DHT22;6474;53.474;9.894;2024-03-23T05:50:50;6.60;87.60
12819;DHT22;6474;53.474;9.894;2024-03-23T05:53:16;6.60;87.60
12819;DHT22;6474;53.474;9.894;2024-03-23T05:55:43;6.60;87.50
12819;DHT22;6474;53.474;9.894;2024-03-23T05:58:10;6.60;87.50
12819;DHT22;6474;53.474;9.894;2024-03-23T06:00:37;6.60;88.10
12819;DHT22;6474;53.474;9.894;2024-03-23T06:03:03;6.60;87.40
12819;DHT22;6474;53.474;9.894;2024-03-23T06:05:30;6.60;87.50
12819;DHT22;6474;53.474;9.894;2024-03-23T06:07:57;6.70;87.60
12819;DHT22;6474;53.474;9.894;2024-03-23T06:10:24;6.70;87.50
12819;DHT22;6474;53.474;9.894;2024-03-23T06:12:50;6.70;87.50
12819;DHT22;6474;53.474;9.894;2024-03-23T06:15:18;6.70;87.50
12819;DHT22;6474;53.474;9.894;2024-03-23T06:17:44;6.70;87.50
12819;DHT22;6474;53.474;9.894;2024-03-23T06:20:11;6.80;87.60
12819;DHT22;6474;53.474;9.894;2024-03-23T06:22:38;6.80;87.70
12819;DHT22;6474;53.474;9.894;2024-03-23T06:25:07;6.80;87.60
12819;DHT22;6474;53.474;9.894;2024-03-23T06:27:33;6.80;87.60
12819;DHT22;6474;53.474;9.894;2024-03-23T06:30:00;6.90;87.60
12819;DHT22;6474;53.474;9.894;2024-03-23T06:32:27;7.00;87.80
12819;DHT22;6474;53.474;9.894;2024-03-23T06:34:55;7.00;87.70
12819;DHT22;6474;53.474;9.894;2024-03-23T06:37:21;7.10;87.70
12819;DHT22;6474;53.474;9.894;2024-03-23T06:39:48;7.20;87.70
12819;DHT22;6474;53.474;9.894;2024-03-23T06:42:15;7.20;87.60
12819;DHT22;6474;53.474;9.894;2024-03-23T06:44:42;7.30;87.60
12819;DHT22;6474;53.474;9.894;2024-03-23T06:47:09;7.40;87.60
12819;DHT22;6474;53.474;9.894;2024-03-23T06:49:36;7.40;87.40
12819;DHT22;6474;53.474;9.894;2024-03-23T06:52:01;7.40;88.10
12819;DHT22;6474;53.474;9.894;2024-03-23T06:54:28;7.40;87.20
12819;DHT22;6474;53.474;9.894;2024-03-23T06:56:54;7.50;87.30
12819;DHT22;6474;53.474;9.894;2024-03-23T06:59:23;7.50;87.20
12819;DHT22;6474;53.474;9.894;2024-03-23T07:01:49;7.40;86.90
12819;DHT22;6474;53.474;9.894;2024-03-23T07:04:16;7.40;86.90
12819;DHT22;6474;53.474;9.894;2024-03-23T07:06:45;7.30;86.80
12819;DHT22;6474;53.474;9.894;2024-03-23T07:09:12;7.30;86.90
12819;DHT22;6474;53.474;9.894;2024-03-23T07:11:38;7.20;87.00
12819;DHT22;6474;53.474;9.894;2024-03-23T07:14:05;7.20;87.10
12819;DHT22;6474;53.474;9.894;2024-03-23T07:16:32;7.20;87.20
12819;DHT22;6474;53.474;9.894;2024-03-23T07:18:59;7.20;87.30
12819;DHT22;6474;53.474;9.894;2024-03-23T07:21:25;7.20;87.40
12819;DHT22;6474;53.474;9.894;2024-03-23T07:23:52;7.20;87.40
12819;DHT22;6474;53.474;9.894;2024-03-23T07:26:18;7.30;87.50
12819;DHT22;6474;53.474;9.894;2024-03-23T07:28:45;7.30;87.60
12819;DHT22;6474;53.474;9.894;2024-03-23T07:31:13;7.40;88.30
12819;DHT22;6474;53.474;9.894;2024-03-23T07:33:48;7.40;87.50
12819;DHT22;6474;53.474;9.894;2024-03-23T07:36:14;7.40;87.40
12819;DHT22;6474;53.474;9.894;2024-03-23T07:38:41;7.50;87.40
12819;DHT22;6474;53.474;9.894;2024-03-23T07:41:08;7.50;87.30
12819;DHT22;6474;53.474;9.894;2024-03-23T07:43:36;7.50;87.20
12819;DHT22;6474;53.474;9.894;2024-03-23T07:46:03;7.50;87.30
12819;DHT22;6474;53.474;9.894;2024-03-23T07:48:30;7.60;87.40
12819;DHT22;6474;53.474;9.894;2024-03-23T07:50:59;7.70;87.40
12819;DHT22;6474;53.474;9.894;2024-03-23T07:53:26;7.70;87.30
12819;DHT22;6474;53.474;9.894;2024-03-23T07:55:54;7.70;87.30
12819;DHT22;6474;53.474;9.894;2024-03-23T07:58:21;7.80;87.40
12819;DHT22;6474;53.474;9.894;2024-03-23T08:00:48;7.80;87.30
12819;DHT22;6474;53.474;9.894;2024-03-23T08:03:14;7.90;87.40
12819;DHT22;6474;53.474;9.894;2024-03-23T08:05:41;7.90;87.30
12819;DHT22;6474;53.474;9.894;2024-03-23T08:08:09;8.00;87.30
12819;DHT22;6474;53.474;9.894;2024-03-23T08:10:36;8.00;87.30
12819;DHT22;6474;53.474;9.894;2024-03-23T08:13:02;8.10;87.40
12819;DHT22;6474;53.474;9.894;2024-03-23T08:15:30;8.10;87.30
12819;DHT22;6474;53.474;9.894;2024-03-23T08:17:59;8.10;87.30
12819;DHT22;6474;53.474;9.894;2024-03-23T08:20:26;8.20;87.30
12819;DHT22;6474;53.474;9.894;2024-03-23T08:22:52;8.20;87.30
12819;DHT22;6474;53.474;9.894;2024-03-23T08:25:21;8.30;87.30
12819;DHT22;6474;53.474;9.894;2024-03-23T08:27:46;8.30;87.40
12819;DHT22;6474;53.474;9.894;2024-03-23T08:30:13;8.40;87.50
12819;DHT22;6474;53.474;9.894;2024-03-23T08:32:39;8.40;87.60
12819;DHT22;6474;53.474;9.894;2024-03-23T08:35:07;8.50;87.80
12819;DHT22;6474;53.474;9.894;2024-03-23T08:37:33;8.60;87.90
12819;DHT22;6474;53.474;9.894;2024-03-23T08:40:00;8.70;87.80
12819;DHT22;6474;53.474;9.894;2024-03-23T08:42:27;8.80;87.80
12819;DHT22;6474;53.474;9.894;2024-03-23T08:44:54;8.90;87.90
12819;DHT22;6474;53.474;9.894;2024-03-23T08:47:21;8.90;87.80
12819;DHT22;6474;53.474;9.894;2024-03-23T08:49:48;9.00;87.80
12819;DHT22;6474;53.474;9.894;2024-03-23T08:52:14;9.10;87.80
12819;DHT22;6474;53.474;9.894;2024-03-23T08:54:41;9.20;87.80
12819;DHT22;6474;53.474;9.894;2024-03-23T08:57:07;9.20;87.90
12819;DHT22;6474;53.474;9.894;2024-03-23T08:59:35;9.30;88.20
12819;DHT22;6474;53.474;9.894;2024-03-23T09:02:01;9.40;88.30
12819;DHT22;6474;53.474;9.894;2024-03-23T09:04:28;9.50;88.20
12819;DHT22;6474;53.474;9.894;2024-03-23T09:06:54;9.60;88.10
12819;DHT22;6474;53.474;9.894;2024-03-23T09:09:20;9.60;87.70
12819;DHT22;6474;53.474;9.894;2024-03-23T09:11:46;9.70;87.80
12819;DHT22;6474;53.474;9.894;2024-03-23T09:14:13;9.70;88.00
12819;DHT22;6474;53.474;9.894;2024-03-23T09:16:41;9.70;88.00
12819;DHT22;6474;53.474;9.894;2024-03-23T09:19:08;9.80;88.10
12819;DHT22;6474;53.474;9.894;2024-03-23T09:21:34;9.80;88.00
12819;DHT22;6474;53.474;9.894;2024-03-23T09:24:01;9.80;88.00
12819;DHT22;6474;53.474;9.894;2024-03-23T09:26:27;9.80;87.90
12819;DHT22;6474;53.474;9.894;2024-03-23T09:28:55;9.80;88.00
12819;DHT22;6474;53.474;9.894;2024-03-23T09:31:21;9.80;88.20
12819;DHT22;6474;53.474;9.894;2024-03-23T09:33:49;9.80;88.10
12819;DHT22;6474;53.474;9.894;2024-03-23T09:36:15;9.80;88.10
12819;DHT22;6474;53.474;9.894;2024-03-23T09:38:42;9.80;88.10
12819;DHT22;6474;53.474;9.894;2024-03-23T09:41:09;9.80;88.30
12819;DHT22;6474;53.474;9.894;2024-03-23T09:43:36;9.90;88.40
12819;DHT22;6474;53.474;9.894;2024-03-23T09:46:02;10.10;87.50
12819;DHT22;6474;53.474;9.894;2024-03-23T09:48:29;10.20;87.30
12819;DHT22;6474;53.474;9.894;2024-03-23T09:50:57;10.30;87.10
12819;DHT22;6474;53.474;9.894;2024-03-23T09:53:24;10.30;86.90
12819;DHT22;6474;53.474;9.894;2024-03-23T09:55:51;10.30;86.80
12819;DHT22;6474;53.474;9.894;2024-03-23T09:58:18;10.40;86.80
12819;DHT22;6474;53.474;9.894;2024-03-23T10:00:44;10.40;86.80
12819;DHT22;6474;53.474;9.894;2024-03-23T10:03:11;10.40;86.80
12819;DHT22;6474;53.474;9.894;2024-03-23T10:05:38;10.40;86.80
12819;DHT22;6474;53.474;9.894;2024-03-23T10:08:18;10.40;86.60
12819;DHT22;6474;53.474;9.894;2024-03-23T10:10:46;10.50;86.60
12819;DHT22;6474;53.474;9.894;2024-03-23T10:13:24;10.40;86.30
12819;DHT22;6474;53.474;9.894;2024-03-23T10:15:56;10.30;86.10
12819;DHT22;6474;53.474;9.894;2024-03-23T10:18:24;10.30;86.20
12819;DHT22;6474;53.474;9.894;2024-03-23T10:20:52;10.30;86.30
12819;DHT22;6474;53.474;9.894;2024-03-23T10:23:33;10.40;86.40
12819;DHT22;6474;53.474;9.894;2024-03-23T10:26:19;10.50;86.50
12819;DHT22;6474;53.474;9.894;2024-03-23T10:28:54;10.60;86.40
12819;DHT22;6474;53.474;9.894;2024-03-23T10:31:23;10.70;86.50
12819;DHT22;6474;53.474;9.894;2024-03-23T10:33:49;10.90;86.70
12819;DHT22;6474;53.474;9.894;2024-03-23T10:36:19;11.00;86.80
12819;DHT22;6474;53.474;9.894;2024-03-23T10:38:47;11.10;86.80
12819;DHT22;6474;53.474;9.894;2024-03-23T10:41:16;11.20;86.80
12819;DHT22;6474;53.474;9.894;2024-03-23T10:43:43;11.40;87.00
12819;DHT22;6474;53.474;9.894;2024-03-23T10:46:11;11.60;87.00
12819;DHT22;6474;53.474;9.894;2024-03-23T10:48:37;11.60;86.70
12819;DHT22;6474;53.474;9.894;2024-03-23T10:51:05;11.60;86.60
12819;DHT22;6474;53.474;9.894;2024-03-23T10:53:34;11.50;86.50
12819;DHT22;6474;53.474;9.894;2024-03-23T10:56:04;11.30;86.20
12819;DHT22;6474;53.474;9.894;2024-03-23T10:58:32;11.10;86.00
12819;DHT22;6474;53.474;9.894;2024-03-23T11:01:02;10.80;86.00
12819;DHT22;6474;53.474;9.894;2024-03-23T11:03:33;10.70;86.10
12819;DHT22;6474;53.474;9.894;2024-03-23T11:06:00;10.50;86.20
12819;DHT22;6474;53.474;9.894;2024-03-23T11:08:36;10.40;86.10
12819;DHT22;6474;53.474;9.894;2024-03-23T11:11:21;10.30;86.20
12819;DHT22;6474;53.474;9.894;2024-03-23T11:13:49;10.40;86.50
12819;DHT22;6474;53.474;9.894;2024-03-23T11:16:18;10.50;86.50
12819;DHT22;6474;53.474;9.894;2024-03-23T11:18:47;10.60;86.30
12819;DHT22;6474;53.474;9.894;2024-03-23T11:24:13;10.90;86.40
12819;DHT22;6474;53.474;9.894;2024-03-23T11:26:42;11.00;86.20
12819;DHT22;6474;53.474;9.894;2024-03-23T11:29:11;11.10;86.10
12819;DHT22;6474;53.474;9.894;2024-03-23T11:31:38;11.30;86.30
12819;DHT22;6474;53.474;9.894;2024-03-23T11:34:05;11.30;85.90
12819;DHT22;6474;53.474;9.894;2024-03-23T11:36:32;11.20;85.50
12819;DHT22;6474;53.474;9.894;2024-03-23T11:38:58;11.10;85.20
12819;DHT22;6474;53.474;9.894;2024-03-23T11:41:25;10.80;84.90
12819;DHT22;6474;53.474;9.894;2024-03-23T11:43:52;10.60;85.00
12819;DHT22;6474;53.474;9.894;2024-03-23T11:46:22;10.40;85.30
12819;DHT22;6474;53.474;9.894;2024-03-23T11:48:49;10.20;85.50
12819;DHT22;6474;53.474;9.894;2024-03-23T11:51:17;10.10;85.90
12819;DHT22;6474;53.474;9.894;2024-03-23T11:53:43;10.10;86.20
12819;DHT22;6474;53.474;9.894;2024-03-23T11:56:10;10.30;86.40
12819;DHT22;6474;53.474;9.894;2024-03-23T11:58:36;10.40;86.40
12819;DHT22;6474;53.474;9.894;2024-03-23T12:01:04;10.40;86.30
12819;DHT22;6474;53.474;9.894;2024-03-23T12:03:31;10.60;86.60
12819;DHT22;6474;53.474;9.894;2024-03-23T12:06:01;10.70;86.40
12819;DHT22;6474;53.474;9.894;2024-03-23T12:08:29;10.90;86.70
12819;DHT22;6474;53.474;9.894;2024-03-23T12:11:05;11.10;86.80
12819;DHT22;6474;53.474;9.894;2024-03-23T12:13:32;11.30;86.60
12819;DHT22;6474;53.474;9.894;2024-03-23T12:16:11;11.40;86.40
12819;DHT22;6474;53.474;9.894;2024-03-23T12:18:38;11.50;86.30
12819;DHT22;6474;53.474;9.894;2024-03-23T12:21:05;11.50;86.10
12819;DHT22;6474;53.474;9.894;2024-03-23T12:23:31;11.60;86.10
12819;DHT22;6474;53.474;9.894;2024-03-23T12:25:59;11.60;86.20
12819;DHT22;6474;53.474;9.894;2024-03-23T12:28:25;11.60;86.10
12819;DHT22;6474;53.474;9.894;2024-03-23T12:30:52;11.50;86.30
12819;DHT22;6474;53.474;9.894;2024-03-23T12:33:19;11.50;86.40
12819;DHT22;6474;53.474;9.894;2024-03-23T12:35:46;11.50;86.30
12819;DHT22;6474;53.474;9.894;2024-03-23T12:38:12;11.50;86.30
12819;DHT22;6474;53.474;9.894;2024-03-23T12:40:39;11.50;86.20
12819;DHT22;6474;53.474;9.894;2024-03-23T12:43:06;11.30;85.50
12819;DHT22;6474;53.474;9.894;2024-03-23T12:45:33;11.10;85.40
12819;DHT22;6474;53.474;9.894;2024-03-23T12:47:59;10.80;85.30
12819;DHT22;6474;53.474;9.894;2024-03-23T12:50:27;10.50;85.40
12819;DHT22;6474;53.474;9.894;2024-03-23T12:52:53;10.20;85.60
12819;DHT22;6474;53.474;9.894;2024-03-23T12:55:20;10.00;85.70
12819;DHT22;6474;53.474;9.894;2024-03-23T12:57:47;9.70;86.90
12819;DHT22;6474;53.474;9.894;2024-03-23T13:00:14;9.50;86.70
12819;DHT22;6474;53.474;9.894;2024-03-23T13:02:41;9.20;86.50
12819;DHT22;6474;53.474;9.894;2024-03-23T13:05:08;9.10;86.70
12819;DHT22;6474;53.474;9.894;2024-03-23T13:07:36;8.90;86.70
12819;DHT22;6474;53.474;9.894;2024-03-23T13:10:04;8.80;86.70
12819;DHT22;6474;53.474;9.894;2024-03-23T13:12:31;8.70;87.00
12819;DHT22;6474;53.474;9.894;2024-03-23T13:14:58;8.70;87.20
12819;DHT22;6474;53.474;9.894;2024-03-23T13:17:24;8.70;87.10
12819;DHT22;6474;53.474;9.894;2024-03-23T13:19:52;8.70;86.80
12819;DHT22;6474;53.474;9.894;2024-03-23T13:22:18;8.60;86.50
12819;DHT22;6474;53.474;9.894;2024-03-23T13:24:46;8.50;86.40
12819;DHT22;6474;53.474;9.894;2024-03-23T13:27:12;8.40;86.50
12819;DHT22;6474;53.474;9.894;2024-03-23T13:29:39;8.20;86.70
12819;DHT22;6474;53.474;9.894;2024-03-23T13:32:06;8.20;87.10
12819;DHT22;6474;53.474;9.894;2024-03-23T13:34:33;8.30;87.60
12819;DHT22;6474;53.474;9.894;2024-03-23T13:37:00;8.40;87.90
12819;DHT22;6474;53.474;9.894;2024-03-23T13:39:27;8.50;88.00
12819;DHT22;6474;53.474;9.894;2024-03-23T13:41:55;8.60;87.70
12819;DHT22;6474;53.474;9.894;2024-03-23T13:44:22;8.80;87.60
12819;DHT22;6474;53.474;9.894;2024-03-23T13:46:48;8.80;88.10
12819;DHT22;6474;53.474;9.894;2024-03-23T13:49:25;8.90;87.30
12819;DHT22;6474;53.474;9.894;2024-03-23T13:51:52;8.90;87.00
12819;DHT22;6474;53.474;9.894;2024-03-23T13:54:20;8.90;87.00
12819;DHT22;6474;53.474;9.894;2024-03-23T13:56:48;9.00;87.30
12819;DHT22;6474;53.474;9.894;2024-03-23T13:59:16;9.10;87.50
12819;DHT22;6474;53.474;9.894;2024-03-23T14:01:43;9.20;87.60
12819;DHT22;6474;53.474;9.894;2024-03-23T14:04:10;9.30;87.40
12819;DHT22;6474;53.474;9.894;2024-03-23T14:06:36;9.50;87.40
12819;DHT22;6474;53.474;9.894;2024-03-23T14:09:03;9.60;87.10
12819;DHT22;6474;53.474;9.894;2024-03-23T14:11:29;9.60;86.70
12819;DHT22;6474;53.474;9.894;2024-03-23T14:13:56;9.50;86.30
12819;DHT22;6474;53.474;9.894;2024-03-23T14:16:24;9.40;86.20
12819;DHT22;6474;53.474;9.894;2024-03-23T14:18:51;9.30;86.20
12819;DHT22;6474;53.474;9.894;2024-03-23T14:21:17;9.30;86.20
12819;DHT22;6474;53.474;9.894;2024-03-23T14:23:45;9.40;86.50
12819;DHT22;6474;53.474;9.894;2024-03-23T14:26:10;9.40;86.20
12819;DHT22;6474;53.474;9.894;2024-03-23T14:28:37;9.30;86.90
12819;DHT22;6474;53.474;9.894;2024-03-23T14:31:03;9.30;86.10
12819;DHT22;6474;53.474;9.894;2024-03-23T14:33:37;9.30;86.20
12819;DHT22;6474;53.474;9.894;2024-03-23T14:36:04;9.40;86.20
12819;DHT22;6474;53.474;9.894;2024-03-23T14:38:31;9.40;86.20
12819;DHT22;6474;53.474;9.894;2024-03-23T14:40:58;9.40;86.20
12819;DHT22;6474;53.474;9.894;2024-03-23T14:43:26;9.40;86.10
12819;DHT22;6474;53.474;9.894;2024-03-23T14:46:08;9.50;86.10
12819;DHT22;6474;53.474;9.894;2024-03-23T14:48:37;9.60;86.10
12819;DHT22;6474;53.474;9.894;2024-03-23T14:51:03;9.60;85.70
12819;DHT22;6474;53.474;9.894;2024-03-23T14:53:32;9.50;85.50
12819;DHT22;6474;53.474;9.894;2024-03-23T14:55:58;9.50;85.60
12819;DHT22;6474;53.474;9.894;2024-03-23T14:58:26;9.50;85.70
12819;DHT22;6474;53.474;9.894;2024-03-23T15:00:53;9.50;85.80
12819;DHT22;6474;53.474;9.894;2024-03-23T15:03:20;9.40;85.70
12819;DHT22;6474;53.474;9.894;2024-03-23T15:05:54;9.40;85.70
12819;DHT22;6474;53.474;9.894;2024-03-23T15:08:21;9.30;85.70
12819;DHT22;6474;53.474;9.894;2024-03-23T15:10:47;9.30;85.70
12819;DHT22;6474;53.474;9.894;2024-03-23T15:13:14;9.20;85.50
12819;DHT22;6474;53.474;9.894;2024-03-23T15:15:43;9.00;84.80
12819;DHT22;6474;53.474;9.894;2024-03-23T15:18:11;8.90;85.00
12819;DHT22;6474;53.474;9.894;2024-03-23T15:20:38;8.80;85.30
12819;DHT22;6474;53.474;9.894;2024-03-23T15:23:07;8.70;85.50
12819;DHT22;6474;53.474;9.894;2024-03-23T15:25:33;8.60;85.30
12819;DHT22;6474;53.474;9.894;2024-03-23T15:28:00;8.50;85.00
12819;DHT22;6474;53.474;9.894;2024-03-23T15:30:26;8.40;85.10
12819;DHT22;6474;53.474;9.894;2024-03-23T15:32:53;8.30;85.20
12819;DHT22;6474;53.474;9.894;2024-03-23T15:35:19;8.30;85.20
12819;DHT22;6474;53.474;9.894;2024-03-23T15:37:48;8.20;85.00
12819;DHT22;6474;53.474;9.894;2024-03-23T15:40:16;8.20;85.00
12819;DHT22;6474;53.474;9.894;2024-03-23T15:42:43;8.10;85.20
12819;DHT22;6474;53.474;9.894;2024-03-23T15:45:09;8.10;85.40
12819;DHT22;6474;53.474;9.894;2024-03-23T15:47:36;8.10;85.40
12819;DHT22;6474;53.474;9.894;2024-03-23T15:50:02;8.10;85.50
12819;DHT22;6474;53.474;9.894;2024-03-23T15:52:34;8.10;85.50
12819;DHT22;6474;53.474;9.894;2024-03-23T15:55:01;8.00;85.50
12819;DHT22;6474;53.474;9.894;2024-03-23T15:57:33;8.10;85.60
12819;DHT22;6474;53.474;9.894;2024-03-23T16:00:00;8.10;85.60
12819;DHT22;6474;53.474;9.894;2024-03-23T16:02:27;8.10;85.60
12819;DHT22;6474;53.474;9.894;2024-03-23T16:04:53;8.00;85.50
12819;DHT22;6474;53.474;9.894;2024-03-23T16:07:20;8.10;85.70
12819;DHT22;6474;53.474;9.894;2024-03-23T16:09:46;8.10;85.70
12819;DHT22;6474;53.474;9.894;2024-03-23T16:12:14;8.10;85.60
12819;DHT22;6474;53.474;9.894;2024-03-23T16:14:41;8.10;85.60
12819;DHT22;6474;53.474;9.894;2024-03-23T16:17:08;8.10;85.60
12819;DHT22;6474;53.474;9.894;2024-03-23T16:19:34;8.00;85.60
12819;DHT22;6474;53.474;9.894;2024-03-23T16:22:01;8.00;85.50
12819;DHT22;6474;53.474;9.894;2024-03-23T16:24:27;7.90;85.60
12819;DHT22;6474;53.474;9.894;2024-03-23T16:26:54;7.90;85.80
12819;DHT22;6474;53.474;9.894;2024-03-23T16:29:20;7.80;86.00
12819;DHT22;6474;53.474;9.894;2024-03-23T16:31:48;7.80;86.20
12819;DHT22;6474;53.474;9.894;2024-03-23T16:34:14;7.90;86.40
12819;DHT22;6474;53.474;9.894;2024-03-23T16:36:41;8.00;86.50
12819;DHT22;6474;53.474;9.894;2024-03-23T16:39:07;8.10;86.40
12819;DHT22;6474;53.474;9.894;2024-03-23T16:41:34;8.10;86.20
12819;DHT22;6474;53.474;9.894;2024-03-23T16:44:00;8.20;86.00
12819;DHT22;6474;53.474;9.894;2024-03-23T16:46:27;8.20;85.70
12819;DHT22;6474;53.474;9.894;2024-03-23T16:48:54;8.10;85.50
12819;DHT22;6474;53.474;9.894;2024-03-23T16:51:21;8.10;85.30
12819;DHT22;6474;53.474;9.894;2024-03-23T16:53:47;8.00;85.30
12819;DHT22;6474;53.474;9.894;2024-03-23T16:56:14;8.00;85.40